Latest Weather Observations for Smithton

IDT60801

Issued at 3:21 pm EST Monday 15 July 2024 (issued every 10 minutes, with the page automatically refreshed every 10 minutes)

About weather observations | Map of weather stations | Latest weather observations for TAS | Other Formats
Station Details ID: 091292 Name: SMITHTON AERODROME Lat: -40.83 Lon: 145.08 Height: 7.5 m
Data from the previous 72 hours. | See also: Recent months at Smithton
Date/Time
EST
Temp
°C
App
Temp
°C
Dew
Point
°C
Rel
Hum
%
Delta-T
°C
Wind Press
QNH
hPa
Press
MSL
hPa
Rain since
9am
mm
Dir  Spd
km/h
Gust
km/h
Spd
kts
Gust
kts
15/03:00pm 12.8 1.8 9.3 79 1.8 SSW 57 85 31 46 994.5 994.5 0.0
15/02:30pm 12.9 2.2 9.4 79 1.8 SSW 56 78 30 42 994.9 994.9 0.0
15/02:00pm 12.7 1.9 9.2 79 1.8 SSW 56 76 30 41 995.2 995.2 0.0
15/01:30pm 12.4 1.6 9.1 80 1.7 SSW 56 89 30 48 995.7 995.7 0.0
15/01:00pm 12.4 1.4 9.2 81 1.6 SSW 57 78 31 42 995.7 995.7 0.0
15/12:30pm 12.3 0.9 9.1 81 1.6 SSW 59 80 32 43 996.4 996.4 0.0
15/12:00pm 12.7 1.9 9.2 79 1.8 SSW 56 74 30 40 997.0 997.0 0.0
15/11:30am 12.2 1.3 9.0 81 1.6 SSW 56 78 30 42 997.7 997.7 0.0
15/11:00am 12.0 1.0 9.0 82 1.5 SSW 57 82 31 44 998.0 998.0 0.0
15/10:32am 11.7 1.6 8.9 83 1.4 SSW 52 76 28 41 998.3 998.3 0.0
15/10:30am 11.6 1.5 9.0 84 1.3 SSW 52 69 28 37 998.3 998.3 0.0
15/10:00am 11.3 1.5 8.7 84 1.3 SSW 50 69 27 37 998.8 998.8 0.0
15/09:30am 10.7 2.0 8.5 86 1.1 SSW 44 63 24 34 999.3 999.3 0.0
15/09:02am 10.3 1.1 8.1 86 1.1 SSW 46 69 25 37 999.4 999.4 0.0
15/09:00am 10.3 1.5 8.1 86 1.1 SSW 44 59 24 32 999.5 999.5 0.6
15/08:30am 10.0 0.8 7.8 86 1.1 SSW 46 67 25 36 1000.0 1000.0 0.6
15/08:02am 9.9 1.0 7.5 85 1.1 SW 44 63 24 34 1000.2 1000.2 0.6
15/08:00am 9.9 1.2 7.5 85 1.2 SW 43 59 23 32 1000.2 1000.2 0.6
15/07:54am 9.7 0.8 7.5 86 1.0 SW 44 63 24 34 1000.3 1000.3 0.6
15/07:30am 9.6 0.6 7.4 86 1.0 SW 44 57 24 31 1000.5 1000.5 0.6
15/07:00am 9.3 0.3 7.3 87 1.0 SW 44 65 24 35 1001.0 1001.0 0.6
15/06:33am 9.2 0.8 7.3 88 0.9 SSW 41 59 22 32 1001.3 1001.3 0.6
15/06:30am 9.1 0.3 7.1 87 0.9 SW 43 59 23 32 1001.3 1001.3 0.6
15/06:02am 9.1 0.3 7.1 87 0.9 SW 43 61 23 33 1001.5 1001.5 0.6
15/06:00am 9.0 0.1 7.0 87 0.9 SSW 43 57 23 31 1001.5 1001.5 0.6
15/05:44am 8.8 -0.1 6.9 88 0.9 SSW 43 61 23 33 1001.5 1001.5 0.4
15/05:30am 8.9 -0.5 7.0 88 0.9 SW 46 63 25 34 1001.5 1001.5 0.2
15/05:27am 8.8 -0.3 6.9 88 0.9 SSW 44 63 24 34 1001.5 1001.5 0.2
15/05:00am 9.2 -0.4 6.3 82 1.3 SSW 46 61 25 33 1001.7 1001.7 0.0
15/04:38am 9.1 0.8 6.0 81 1.4 SSW 39 59 21 32 1002.0 1002.0 0.0
15/04:30am 9.0 0.7 5.9 81 1.4 SSW 39 56 21 30 1002.1 1002.1 0.0
15/04:00am 8.8 -0.3 5.9 82 1.3 SW 43 65 23 35 1002.6 1002.6 0.0
15/03:30am 8.7 -0.6 5.8 82 1.3 SSW 44 63 24 34 1002.8 1002.8 0.0
15/03:00am 8.6 -0.8 5.2 79 1.5 SW 44 63 24 34 1003.3 1003.3 0.0
15/02:30am 8.4 -1.1 5.0 79 1.5 SSW 44 59 24 32 1004.0 1004.0 0.0
15/02:00am 8.3 -0.7 4.7 78 1.6 SSW 41 54 22 29 1004.7 1004.7 0.0
15/01:30am 8.4 -1.2 4.2 75 1.8 SSW 44 59 24 32 1005.0 1005.0 0.0
15/01:04am 8.7 0.0 3.9 72 2.1 SSW 39 61 21 33 1005.2 1005.2 0.0
15/01:00am 8.6 0.6 4.0 73 2.0 SSW 35 48 19 26 1005.3 1005.3 0.0
15/12:30am 8.3 0.4 4.3 76 1.7 SW 35 44 19 24 1005.6 1005.6 0.0
15/12:00am 8.1 0.7 3.9 75 1.8 SW 32 41 17 22 1006.2 1006.2 0.0
 
Date/Time
EST
Temp
°C
App
Temp
°C
Dew
Point
°C
Rel
Hum
%
Delta-T
°C
Wind Press
QNH
hPa
Press
MSL
hPa
Rain since
9am
mm
Dir  Spd
km/h
Gust
km/h
Spd
kts
Gust
kts
14/11:30pm 7.5 1.6 3.7 77 1.6 SW 24 35 13 19 1006.9 1006.9 0.0
14/11:00pm 7.5 0.8 3.6 76 1.7 SW 28 35 15 19 1007.1 1007.1 0.0
14/10:30pm 7.0 0.7 3.6 79 1.4 SW 26 32 14 17 1007.5 1007.5 0.0
14/10:00pm 7.4 -0.2 3.8 78 1.5 SW 33 44 18 24 1007.9 1007.9 0.0
14/09:30pm 6.8 0.1 3.9 82 1.2 SW 28 35 15 19 1008.1 1008.1 0.0
14/09:00pm 6.9 -0.5 3.9 81 1.3 SW 32 41 17 22 1008.5 1008.5 0.0
14/08:30pm 7.1 0.1 4.2 82 1.3 SW 30 41 16 22 1008.9 1008.9 0.0
14/08:00pm 7.2 -0.2 4.0 80 1.4 SW 32 41 17 22 1009.3 1009.3 0.0
14/07:30pm 7.1 0.0 3.7 79 1.4 SSW 30 41 16 22 1009.5 1009.5 0.0
14/07:00pm 7.2 0.6 4.0 80 1.4 SSW 28 39 15 21 1009.8 1009.8 0.0
14/06:30pm 7.6 1.3 4.0 78 1.6 SSW 26 35 14 19 1010.0 1010.0 0.0
14/06:14pm 7.7 -0.3 3.7 76 1.7 SSW 35 56 19 30 1009.9 1009.9 0.0
14/06:00pm 8.1 1.0 3.8 74 1.9 SSW 30 41 16 22 1010.0 1010.0 0.0
14/05:30pm 7.8 1.0 3.1 72 2.0 SW 28 35 15 19 1010.0 1010.0 0.0
14/05:00pm 8.0 1.2 3.1 71 2.1 SW 28 43 15 23 1010.1 1010.1 0.0
14/04:30pm 9.0 2.2 3.0 66 2.6 SW 28 37 15 20 1010.2 1010.2 0.0
14/04:00pm 9.4 1.6 2.9 64 2.8 SW 33 48 18 26 1010.3 1010.3 0.0
14/03:30pm 10.1 2.9 3.2 62 3.0 SW 30 44 16 24 1010.4 1010.4 0.0
14/03:00pm 10.5 2.7 3.1 60 3.2 SW 33 46 18 25 1010.6 1010.6 0.0
14/02:31pm 10.7 2.9 3.0 59 3.3 SSW 33 52 18 28 1010.7 1010.7 0.0
14/02:30pm 10.7 2.5 2.8 58 3.4 SSW 35 52 19 28 1010.6 1010.6 0.0
14/02:29pm 10.7 2.8 2.0 55 3.7 SSW 33 52 18 28 1010.6 1010.6 0.0
14/02:00pm 10.7 1.7 2.5 57 3.5 SSW 39 52 21 28 1010.7 1010.7 0.0
14/01:33pm 10.9 3.3 4.1 63 3.0 SSW 33 52 18 28 1010.9 1010.9 0.0
14/01:30pm 10.7 2.4 4.2 64 2.9 SSW 37 52 20 28 1010.9 1010.9 0.0
14/01:00pm 9.8 2.0 5.0 72 2.2 SSW 35 56 19 30 1011.3 1011.3 0.0
14/12:54pm 10.5 2.2 4.4 66 2.7 SSW 37 56 20 30 1011.3 1011.3 0.0
14/12:30pm 10.4 2.8 5.8 73 2.1 SSW 35 44 19 24 1011.7 1011.7 0.0
14/12:00pm 9.9 2.3 5.7 75 1.9 SSW 35 43 19 23 1012.1 1012.1 0.0
14/11:30am 9.4 2.7 5.8 78 1.6 SSW 30 41 16 22 1012.8 1012.8 0.0
14/11:00am 9.0 2.7 5.7 80 1.5 SSW 28 37 15 20 1013.5 1013.5 0.0
14/10:30am 8.5 3.3 5.6 82 1.3 SSW 22 32 12 17 1013.9 1013.9 0.0
14/10:00am 7.3 3.5 5.9 91 0.6 S 15 22 8 12 1014.1 1014.1 0.0
14/09:30am 5.4 3.0 5.1 98 0.1 S 7 11 4 6 1014.2 1014.2 0.0
14/09:00am 2.4 -1.4 2.0 97 0.2 SSW 11 15 6 8 1014.2 1014.2 0.0
14/08:30am 0.1 -4.0 -0.2 98 0.1 SW 11 13 6 7 1014.2 1014.2 0.0
14/08:00am -1.4 -5.0 -1.8 97 0.1 SW 7 7 4 4 1014.3 1014.3 0.0
14/07:30am -1.5 -5.1 -1.9 97 0.1 WSW 7 9 4 5 1014.5 1014.5 0.0
14/07:00am -1.3 -4.8 -1.7 97 0.1 S 7 9 4 5 1014.5 1014.5 0.0
14/06:30am -2.1 -4.4 -2.6 96 0.1 CALM 0 0 0 0 1014.5 1014.5 0.0
14/06:00am -1.7 -4.0 -2.1 97 0.1 CALM 0 0 0 0 1014.3 1014.3 0.0
14/05:30am -1.9 -5.0 -2.3 97 0.0 S 4 6 2 3 1014.3 1014.3 0.0
14/05:00am -2.2 -5.9 -2.6 97 0.0 S 7 7 4 4 1014.3 1014.3 0.0
14/04:30am -1.6 -5.6 -2.2 96 0.1 SSW 9 9 5 5 1014.4 1014.4 0.0
14/04:00am -1.3 -4.9 -1.9 96 0.1 SSW 7 9 4 5 1014.4 1014.4 0.0
14/03:30am -0.8 -3.0 -1.4 96 0.2 CALM 0 0 0 0 1014.6 1014.6 0.0
14/03:00am -1.1 -4.5 -1.7 96 0.2 S 6 6 3 3 1014.7 1014.7 0.0
14/02:30am -0.6 -3.9 -1.2 96 0.2 S 6 7 3 4 1014.9 1014.9 0.0
14/02:00am -0.4 -3.9 -1.0 96 0.2 S 7 7 4 4 1014.9 1014.9 0.0
14/01:30am 0.8 -2.9 0.2 96 0.2 S 9 11 5 6 1015.0 1015.0 0.0
14/01:00am 2.0 -1.1 1.4 96 0.2 S 7 9 4 5 1015.0 1015.0 0.0
14/12:30am 1.4 -2.6 0.7 95 0.3 SSW 11 11 6 6 1015.1 1015.1 0.0
14/12:00am 1.1 -2.9 0.4 95 0.3 S 11 13 6 7 1015.3 1015.3 0.0
 
Date/Time
EST
Temp
°C
App
Temp
°C
Dew
Point
°C
Rel
Hum
%
Delta-T
°C
Wind Press
QNH
hPa
Press
MSL
hPa
Rain since
9am
mm
Dir  Spd
km/h
Gust
km/h
Spd
kts
Gust
kts
13/11:30pm 0.6 -3.5 -0.1 95 0.3 S 11 13 6 7 1015.4 1015.4 0.0
13/11:00pm 0.7 -3.8 -0.2 94 0.3 S 13 15 7 8 1015.6 1015.6 0.0
13/10:30pm 1.4 -3.0 0.5 94 0.3 S 13 15 7 8 1015.7 1015.7 0.0
13/10:00pm 1.0 -2.7 0.0 93 0.4 SW 9 11 5 6 1015.7 1015.7 0.0
13/09:30pm 1.7 -1.9 0.7 93 0.4 SW 9 11 5 6 1016.0 1016.0 0.0
13/09:00pm 2.5 -0.6 1.5 93 0.4 SSW 7 7 4 4 1016.1 1016.1 0.0
13/08:30pm 2.7 -0.3 1.7 93 0.4 SSW 7 9 4 5 1015.9 1015.9 0.0
13/08:00pm 3.2 0.2 2.2 93 0.4 S 7 9 4 5 1015.9 1015.9 0.0
13/07:30pm 2.4 -1.1 1.2 92 0.5 SSW 9 11 5 6 1015.9 1015.9 0.0
13/07:00pm 3.4 0.4 1.9 90 0.6 SSW 7 9 4 5 1015.9 1015.9 0.0
13/06:30pm 4.7 1.9 3.2 90 0.6 S 7 7 4 4 1015.7 1015.7 0.0
13/06:00pm 5.5 2.8 3.7 88 0.8 SSW 7 7 4 4 1015.4 1015.4 0.0
13/05:30pm 6.2 3.5 3.7 84 1.1 SSW 7 9 4 5 1015.3 1015.3 0.0
13/05:00pm 7.4 4.1 4.4 81 1.3 SW 11 13 6 7 1015.2 1015.2 0.0
13/04:30pm 8.6 5.9 5.5 81 1.4 SSW 9 9 5 5 1015.1 1015.1 0.0
13/04:00pm 9.4 5.5 5.4 76 1.8 SSW 15 22 8 12 1015.0 1015.0 0.0
13/03:30pm 9.9 5.8 6.3 78 1.7 S 17 22 9 12 1015.0 1015.0 0.0
13/03:00pm 9.6 4.9 6.1 79 1.6 S 20 26 11 14 1014.8 1014.8 0.0
13/02:30pm 10.8 6.3 6.9 77 1.8 SW 20 30 11 16 1014.5 1014.5 0.0
13/02:00pm 10.8 6.2 6.4 74 2.1 SW 20 28 11 15 1014.4 1014.4 0.0
13/01:30pm 11.1 6.6 7.0 76 2.0 SW 20 30 11 16 1014.3 1014.3 0.0
13/01:00pm 10.2 5.7 7.1 81 1.5 SSW 20 26 11 14 1014.5 1014.5 0.0
13/12:30pm 11.3 6.5 7.2 76 2.0 SW 22 28 12 15 1014.6 1014.6 0.0
13/12:00pm 11.4 6.9 7.1 75 2.1 SW 20 28 11 15 1014.9 1014.9 0.0
13/11:30am 10.9 7.1 7.4 79 1.7 SW 17 22 9 12 1015.4 1015.4 0.0
13/11:00am 10.2 7.9 9.0 92 0.6 SW 11 24 6 13 1015.7 1015.7 0.0
13/10:30am 8.4 6.6 8.0 97 0.2 SSW 7 9 4 5 1015.8 1015.8 0.0
13/10:00am 7.4 5.0 7.0 97 0.2 S 9 11 5 6 1015.8 1015.8 0.0
13/09:30am 5.9 2.8 5.6 98 0.1 S 11 13 6 7 1015.6 1015.6 0.0
13/09:00am 4.1 0.7 3.8 98 0.1 S 11 13 6 7 1015.4 1015.4 4.4
13/08:30am 2.2 -2.0 1.8 97 0.2 S 13 15 7 8 1015.0 1015.0 4.4
13/08:00am 1.0 -2.6 0.4 96 0.2 S 9 11 5 6 1014.8 1014.8 4.4
13/07:30am 0.7 -2.6 0.1 96 0.2 S 7 9 4 5 1014.6 1014.6 4.4
13/07:00am 0.9 -2.4 0.2 95 0.3 SSW 7 11 4 6 1014.4 1014.4 4.4
13/06:30am 2.0 0.2 1.4 96 0.2 CALM 0 0 0 0 1014.2 1014.2 4.4
13/06:00am 2.9 -0.4 2.3 96 0.2 S 9 11 5 6 1013.9 1013.9 4.4
13/05:30am 2.7 -1.4 2.1 96 0.2 S 13 22 7 12 1013.7 1013.7 4.4
13/05:00am 3.1 1.5 2.4 95 0.3 CALM 0 0 0 0 1013.5 1013.5 4.4
13/04:30am 4.2 2.8 3.5 95 0.3 CALM 0 0 0 0 1013.3 1013.3 4.4
13/04:00am 4.7 2.1 4.0 95 0.3 SSW 7 9 4 5 1013.4 1013.4 4.2
13/03:30am 4.4 3.0 3.7 95 0.3 CALM 0 4 0 2 1013.5 1013.5 4.2
13/03:00am 4.5 2.8 3.8 95 0.3 NNW 2 6 1 3 1013.4 1013.4 4.2
13/02:30am 4.0 2.5 3.1 94 0.4 CALM 0 0 0 0 1013.1 1013.1 4.2
13/02:00am 4.9 2.4 4.0 94 0.4 S 6 7 3 4 1013.1 1013.1 4.2
13/01:30am 4.9 2.4 3.9 93 0.4 WNW 6 7 3 4 1012.6 1012.6 4.0
13/01:00am 5.4 2.1 4.4 93 0.4 WSW 11 13 6 7 1012.8 1012.8 4.0
13/12:30am 4.7 1.2 3.5 92 0.5 W 11 17 6 9 1012.7 1012.7 4.0
13/12:00am 5.1 2.6 3.9 92 0.5 W 6 7 3 4 1012.5 1012.5 4.0
 
Date/Time
EST
Temp
°C
App
Temp
°C
Dew
Point
°C
Rel
Hum
%
Delta-T
°C
Wind Press
QNH
hPa
Press
MSL
hPa
Rain since
9am
mm
Dir  Spd
km/h
Gust
km/h
Spd
kts
Gust
kts
12/11:30pm 5.5 2.9 4.0 90 0.6 W 7 9 4 5 1012.7 1012.7 4.0
12/11:00pm 6.6 3.0 5.1 90 0.7 W 13 15 7 8 1012.5 1012.5 4.0
12/10:30pm 7.3 3.5 5.9 91 0.6 WSW 15 17 8 9 1012.5 1012.5 4.0
12/10:00pm 8.4 5.2 7.0 91 0.7 WSW 13 15 7 8 1012.1 1012.1 4.0
12/09:30pm 9.3 6.4 8.2 93 0.5 W 13 17 7 9 1012.2 1012.2 4.0
12/09:00pm 9.2 5.6 8.4 95 0.4 SW 17 20 9 11 1012.0 1012.0 4.0
12/08:30pm 7.6 5.7 6.7 94 0.4 WNW 6 6 3 3 1011.9 1011.9 4.0
12/08:00pm 8.2 5.4 7.1 93 0.5 W 11 13 6 7 1011.8 1011.8 4.0
12/07:30pm 9.4 6.9 8.3 93 0.5 WNW 11 15 6 8 1011.6 1011.6 3.8
12/07:00pm 10.4 6.5 9.3 93 0.5 WNW 20 35 11 19 1011.4 1011.4 3.6
12/06:30pm 11.0 7.4 9.9 93 0.6 NW 19 24 10 13 1011.2 1011.2 0.6
12/06:00pm 10.7 7.4 9.5 92 0.6 NW 17 22 9 12 1010.9 1010.9 0.6
12/05:30pm 10.5 7.1 9.1 91 0.7 NNW 17 20 9 11 1011.0 1011.0 0.4
12/05:00pm 11.3 8.5 9.9 91 0.7 NW 15 22 8 12 1011.1 1011.1 0.4
12/04:30pm 11.7 9.1 9.4 86 1.2 NNW 13 17 7 9 1011.0 1011.0 0.0
12/04:00pm 12.0 7.6 9.0 82 1.5 NW 22 30 12 16 1011.2 1011.2 0.0
12/03:30pm 13.3 10.5 11.4 88 1.0 NNW 17 24 9 13 1011.1 1011.1 0.0

Other formats

Comma delimited format used in spreadsheet applications
http://www.bom.gov.au/fwo/IDT60801/IDT60801.94953.axf

JavaScript Object Notation format (JSON) in row-major order
http://www.bom.gov.au/fwo/IDT60801/IDT60801.94953.json

Data quality

Most of these data are generated automatically and are frequently updated. Quality checks on data are not normally performed. It is possible for incorrect values to appear. Refer to information at About Latest Weather Observations and please check the disclaimer before using these data.